Time;durP1;ratioP1;P1;durP2;ratioP2;P2;SDS_P1;SDS_P2;PMS_P1;PMS_P2;Temp;Humidity;BMP_temperature;BMP_pressure;BME280_temperature;BME280_humidity;BME280_pressure;Samples;Min_cycle;Max_cycle;Signal;HPM_P1;HPM_P2
2022/06/08 00:01:05;;;;;;;28.50;14.57;;;;;;;37.40;45.30;101096.88;4959128;28;20418;-69
2022/06/08 00:03:53;;;;;;;22.97;14.67;;;;;;;37.42;44.78;101089.25;4959299;28;20457;-71
2022/06/08 00:06:21;;;;;;;23.67;16.43;;;;;;;37.33;44.99;101078.31;4959005;28;20482;-71
2022/06/08 00:08:47;;;;;;;24.03;16.00;;;;;;;37.41;45.09;101079.53;4958983;28;20546;-70
2022/06/08 00:11:14;;;;;;;24.13;11.97;;;;;;;37.49;45.13;101084.25;4959318;28;20427;-71
2022/06/08 00:13:42;;;;;;;21.97;15.00;;;;;;;37.33;45.34;101082.91;4958790;28;20454;-70
2022/06/08 00:16:09;;;;;;;19.27;11.40;;;;;;;37.48;44.46;101079.16;4958882;28;20426;-71
2022/06/08 00:18:35;;;;;;;34.53;14.70;;;;;;;37.30;45.50;101073.47;4976495;28;20414;-70
2022/06/08 00:21:02;;;;;;;22.57;15.27;;;;;;;37.41;45.43;101078.75;4958665;28;20452;-71
2022/06/08 00:23:28;;;;;;;25.40;15.00;;;;;;;37.30;45.43;101065.34;4974898;28;20481;-71
2022/06/08 00:25:54;;;;;;;22.30;14.70;;;;;;;37.41;44.91;101065.22;4958711;28;20940;-71
2022/06/08 00:28:21;;;;;;;22.23;14.30;;;;;;;37.31;44.77;101066.16;4976313;28;20445;-70
2022/06/08 00:30:47;;;;;;;23.70;15.00;;;;;;;37.28;45.26;101061.34;4958705;28;20426;-71
2022/06/08 00:33:13;;;;;;;19.97;12.30;;;;;;;37.26;45.13;101056.25;4958107;28;21050;-71
2022/06/08 00:35:39;;;;;;;25.60;14.67;;;;;;;37.23;45.58;101059.53;4958481;28;20472;-70
2022/06/08 00:38:06;;;;;;;26.97;14.00;;;;;;;37.20;45.49;101054.72;4958537;28;20414;-71
2022/06/08 00:40:45;;;;;;;20.43;13.50;;;;;;;37.20;46.04;101053.88;4958341;28;20418;-71
2022/06/08 00:43:11;;;;;;;24.47;14.60;;;;;;;37.35;45.58;101049.06;4975726;28;20439;-70
2022/06/08 00:45:38;;;;;;;30.13;14.73;;;;;;;37.30;45.61;101057.22;4974850;28;20494;-71
2022/06/08 00:48:06;;;;;;;17.70;15.30;;;;;;;37.06;45.88;101051.16;4958109;28;20410;-70
2022/06/08 00:50:41;;;;;;;23.20;14.50;;;;;;;37.09;45.82;101048.69;4958248;28;20517;-70
2022/06/08 00:53:09;;;;;;;24.70;14.83;;;;;;;37.08;45.47;101047.06;4958105;28;20461;-70
2022/06/08 00:55:38;;;;;;;24.33;13.80;;;;;;;37.00;45.91;101034.22;4975845;28;20434;-70
2022/06/08 00:58:10;;;;;;;18.40;13.60;;;;;;;37.02;45.44;101040.13;4958123;28;20415;-71
2022/06/08 01:00:38;;;;;;;28.87;15.60;;;;;;;37.23;45.44;101035.19;4958105;28;20770;-69
2022/06/08 01:03:07;;;;;;;27.87;13.93;;;;;;;37.11;45.85;101034.84;4975620;28;20936;-69
2022/06/08 01:05:58;;;;;;;24.77;15.60;;;;;;;37.32;44.99;101035.28;4975746;28;20454;-69
2022/06/08 01:08:36;;;;;;;27.73;15.17;;;;;;;37.11;46.11;101035.66;4973970;28;20418;-70
2022/06/08 01:11:31;;;;;;;25.33;16.03;;;;;;;37.08;45.75;101030.84;4973995;28;20516;-70
2022/06/08 01:14:05;;;;;;;44.17;16.47;;;;;;;37.30;44.99;101032.88;4950399;28;20494;-70
2022/06/08 01:16:32;;;;;;;30.20;15.67;;;;;;;37.26;45.17;101031.91;4975547;28;20493;-70
2022/06/08 01:19:01;;;;;;;34.43;17.83;;;;;;;37.47;45.10;101026.94;4957627;28;20520;-71
2022/06/08 01:21:27;;;;;;;24.30;15.37;;;;;;;37.51;44.97;101027.97;4957701;28;20415;-70
2022/06/08 01:24:14;;;;;;;31.70;16.80;;;;;;;37.50;45.27;101034.44;4957521;28;20940;-70
2022/06/08 01:26:55;;;;;;;31.33;17.47;;;;;;;37.50;45.05;101026.31;4957586;28;20431;-70
2022/06/08 01:30:01;;;;;;;22.60;15.60;;;;;;;37.54;44.68;101031.97;4957324;28;20870;-71
2022/06/08 01:32:53;;;;;;;26.07;14.43;;;;;;;37.49;44.39;101027.44;4954683;28;20461;-70
2022/06/08 01:35:38;;;;;;;25.97;16.10;;;;;;;37.20;45.16;101024.97;4926056;29;20419;-72
2022/06/08 01:38:26;;;;;;;23.07;15.40;;;;;;;37.28;45.06;101020.78;4954360;29;20415;-70
2022/06/08 01:41:15;;;;;;;24.53;13.90;;;;;;;37.41;44.65;101022.72;4954341;29;20415;-70
2022/06/08 01:44:06;;;;;;;21.10;13.67;;;;;;;37.41;45.12;101020.00;4931169;29;20447;-70
2022/06/08 01:46:42;;;;;;;22.73;13.63;;;;;;;37.53;44.90;101025.75;4916096;29;20447;-71
2022/06/08 01:49:25;;;;;;;18.47;14.20;;;;;;;37.26;45.01;101018.38;4955794;29;20407;-70
2022/06/08 01:52:25;;;;;;;20.60;12.50;;;;;;;37.34;45.11;101017.69;4953808;29;20473;-71
2022/06/08 01:55:18;;;;;;;21.30;14.57;;;;;;;37.44;44.76;101032.94;4937953;29;20809;-71
2022/06/08 01:57:57;;;;;;;28.70;16.33;;;;;;;37.54;44.81;101026.53;4937844;28;20570;-69
2022/06/08 02:00:32;;;;;;;28.50;16.60;;;;;;;37.09;45.63;101024.34;4937717;29;20411;-71
2022/06/08 02:03:07;;;;;;;23.60;12.90;;;;;;;37.06;45.44;101024.91;4937759;29;20797;-70
2022/06/08 02:05:53;;;;;;;23.77;14.27;;;;;;;37.00;45.79;101012.56;4954095;29;20431;-71
2022/06/08 02:08:50;;;;;;;20.90;14.07;;;;;;;36.97;45.75;101015.09;4953704;29;20419;-70
2022/06/08 02:11:20;;;;;;;29.40;14.90;;;;;;;37.18;45.44;101015.53;4943862;29;20456;-71
2022/06/08 02:13:58;;;;;;;24.17;15.30;;;;;;;37.11;45.39;101013.22;4918521;29;20535;-71
2022/06/08 02:16:48;;;;;;;22.50;15.00;;;;;;;37.13;45.82;101011.00;4918525;29;20428;-70
2022/06/08 02:19:20;;;;;;;22.97;13.37;;;;;;;37.35;45.06;101013.09;4935941;29;20521;-71
2022/06/08 02:22:10;;;;;;;24.87;14.27;;;;;;;37.39;45.00;101022.22;4903154;29;20508;-71
2022/06/08 02:24:52;;;;;;;21.03;14.33;;;;;;;37.18;45.29;101015.53;4918783;29;20416;-70
2022/06/08 02:27:44;;;;;;;20.80;12.87;;;;;;;37.28;44.86;101018.06;4918332;29;20791;-70
2022/06/08 02:30:33;;;;;;;23.83;13.57;;;;;;;37.50;44.62;101007.38;4918520;29;20416;-70
2022/06/08 02:36:27;;;;;;;23.47;13.37;;;;;;;37.51;45.01;101011.72;4954667;29;20530;-70
2022/06/08 02:39:00;;;;;;;19.30;13.60;;;;;;;37.23;44.92;101018.16;4937093;29;20434;-70
2022/06/08 02:41:27;;;;;;;22.03;13.83;;;;;;;37.37;44.81;101010.88;4954986;29;20399;-71
2022/06/08 02:43:59;;;;;;;24.63;14.10;;;;;;;37.26;44.80;101004.84;4937310;29;21089;-70
2022/06/08 02:46:35;;;;;;;28.23;15.67;;;;;;;37.34;45.06;101014.19;4954929;29;20409;-71
2022/06/08 02:49:06;;;;;;;19.83;13.97;;;;;;;37.47;44.58;101018.81;4937248;29;20445;-71
2022/06/08 02:51:34;;;;;;;20.30;14.27;;;;;;;37.61;44.76;101013.41;4937179;29;20439;-70
2022/06/08 02:54:07;;;;;;;26.00;16.97;;;;;;;37.48;44.94;101022.31;4937123;29;20458;-70
2022/06/08 02:56:50;;;;;;;22.77;16.77;;;;;;;37.32;45.21;101025.28;4937269;29;20419;-71
2022/06/08 02:59:35;;;;;;;24.80;16.67;;;;;;;37.41;45.41;101024.63;4937146;29;20808;-71
2022/06/08 03:02:22;;;;;;;27.93;16.83;;;;;;;36.98;46.53;101033.72;4954628;29;20399;-71
2022/06/08 03:05:01;;;;;;;31.03;18.60;;;;;;;37.01;46.05;101032.31;4937101;29;20446;-71
2022/06/08 03:07:34;;;;;;;30.30;19.03;;;;;;;37.07;45.70;101031.91;4937160;29;20434;-70
2022/06/08 03:10:06;;;;;;;32.53;19.70;;;;;;;37.18;45.84;101046.09;4938708;29;20423;-71
2022/06/08 03:12:43;;;;;;;30.13;20.00;;;;;;;37.24;46.09;101044.09;4940803;29;20513;-70
2022/06/08 03:15:14;;;;;;;29.20;24.87;;;;;;;37.13;46.22;101036.16;4940679;29;20418;-71
2022/06/08 03:17:41;;;;;;;38.03;21.97;;;;;;;36.95;46.44;101045.09;4940742;29;20450;-71
2022/06/08 03:20:09;;;;;;;45.50;24.83;;;;;;;37.00;46.28;101045.03;4940862;29;20821;-70
2022/06/08 03:22:36;;;;;;;37.53;24.33;;;;;;;36.69;46.60;101049.25;4940698;29;20415;-71
2022/06/08 03:25:03;;;;;;;34.67;23.70;;;;;;;36.49;47.03;101034.97;4958217;29;20395;-70
2022/06/08 03:27:29;;;;;;;34.87;22.47;;;;;;;36.29;47.82;101030.63;4940563;29;20502;-70
2022/06/08 03:29:55;;;;;;;36.40;22.40;;;;;;;36.41;47.16;101037.53;4940565;29;20419;-70
2022/06/08 03:32:21;;;;;;;34.70;20.60;;;;;;;36.55;46.73;101033.00;4940381;29;20451;-69
2022/06/08 03:34:48;;;;;;;31.93;23.20;;;;;;;36.72;46.43;101033.28;4940320;29;20819;-69
2022/06/08 03:37:14;;;;;;;34.73;21.37;;;;;;;36.83;46.52;101040.16;4940418;29;20419;-69
2022/06/08 03:39:40;;;;;;;29.00;22.10;;;;;;;36.80;46.02;101037.22;4940408;29;20430;-69
2022/06/08 03:42:07;;;;;;;28.00;21.70;;;;;;;36.94;46.11;101043.50;4958413;29;20905;-69
2022/06/08 03:44:33;;;;;;;28.50;19.50;;;;;;;37.03;45.67;101038.25;4957923;29;20400;-69
2022/06/08 03:47:11;;;;;;;31.83;19.77;;;;;;;37.04;46.09;101042.53;4957848;29;20399;-69
2022/06/08 03:49:38;;;;;;;25.67;19.03;;;;;;;36.90;45.91;101042.50;4940238;29;20957;-69
2022/06/08 03:52:14;;;;;;;26.83;20.10;;;;;;;36.57;46.77;101042.41;4940497;29;20423;-69
2022/06/08 03:54:46;;;;;;;23.77;16.93;;;;;;;36.53;47.19;101046.00;4957715;29;20815;-69
2022/06/08 03:57:14;;;;;;;29.93;18.70;;;;;;;36.44;47.11;101043.13;4939987;29;20420;-69
2022/06/08 03:59:42;;;;;;;27.37;18.73;;;;;;;36.78;46.52;101045.63;4957686;29;20419;-69
2022/06/08 04:02:10;;;;;;;30.10;19.57;;;;;;;36.73;46.37;101040.28;4939887;29;20510;-69
2022/06/08 04:04:37;;;;;;;30.63;19.70;;;;;;;36.59;46.44;101052.94;4939970;29;20435;-69
2022/06/08 04:07:05;;;;;;;30.13;19.00;;;;;;;36.69;46.73;101051.97;4939821;29;20812;-71
2022/06/08 04:09:31;;;;;;;23.60;16.53;;;;;;;36.45;46.84;101060.16;4957508;29;20400;-71
2022/06/08 04:11:58;;;;;;;27.60;18.93;;;;;;;36.53;46.87;101054.91;4957127;29;20422;-70
2022/06/08 04:14:24;;;;;;;27.27;20.90;;;;;;;36.57;46.51;101047.00;4957187;29;20533;-70
2022/06/08 04:16:51;;;;;;;42.00;21.47;;;;;;;36.39;47.56;101064.81;4939793;29;20956;-69
2022/06/08 04:19:18;;;;;;;38.80;22.37;;;;;;;36.28;47.30;101072.22;4939701;29;20423;-71
2022/06/08 04:21:45;;;;;;;30.33;20.93;;;;;;;36.21;47.45;101068.25;4939117;29;20431;-70
2022/06/08 04:24:14;;;;;;;29.90;22.40;;;;;;;36.15;47.56;101064.00;4939518;29;20423;-70
2022/06/08 04:26:40;;;;;;;29.03;18.53;;;;;;;36.57;46.91;101053.22;4957215;29;20446;-71
2022/06/08 04:29:08;;;;;;;40.83;19.13;;;;;;;36.64;46.88;101055.53;4939496;29;20419;-71
2022/06/08 04:31:35;;;;;;;33.17;21.40;;;;;;;36.55;46.50;101063.50;4939317;29;20423;-70
2022/06/08 04:34:05;;;;;;;29.27;19.37;;;;;;;36.57;46.30;101074.03;4939215;29;21015;-69
2022/06/08 04:36:31;;;;;;;27.97;21.47;;;;;;;36.44;46.98;101080.16;4939253;29;20449;-69
2022/06/08 04:38:59;;;;;;;27.67;20.40;;;;;;;36.39;47.26;101082.88;4939300;29;20463;-71
2022/06/08 04:41:26;;;;;;;28.63;23.67;;;;;;;36.15;47.64;101085.63;4939147;29;20522;-70
2022/06/08 04:43:53;;;;;;;29.50;18.80;;;;;;;36.37;46.82;101083.19;4956719;29;20396;-69
2022/06/08 04:46:19;;;;;;;35.47;20.60;;;;;;;36.48;46.78;101083.91;4939144;29;20984;-70
2022/06/08 04:48:46;;;;;;;35.53;21.70;;;;;;;36.31;47.29;101074.34;4956676;29;20399;-70
2022/06/08 04:51:15;;;;;;;29.00;20.67;;;;;;;36.45;46.32;101085.25;4956768;29;20411;-70
2022/06/08 04:53:43;;;;;;;40.43;25.77;;;;;;;36.30;46.75;101074.63;4939048;29;20455;-69
2022/06/08 04:56:10;;;;;;;28.60;24.63;;;;;;;36.40;46.74;101076.41;4956553;29;20399;-71
2022/06/08 04:58:36;;;;;;;28.13;21.23;;;;;;;36.35;46.63;101074.56;4938910;29;20418;-71
2022/06/08 05:01:04;;;;;;;48.17;24.40;;;;;;;36.32;46.81;101073.25;4939455;29;20451;-70
2022/06/08 05:03:31;;;;;;;33.43;25.43;;;;;;;36.10;47.58;101083.78;4938941;29;20494;-71
2022/06/08 05:05:58;;;;;;;29.90;21.80;;;;;;;36.10;47.35;101074.91;4938982;29;20439;-71
2022/06/08 05:08:25;;;;;;;36.83;24.37;;;;;;;36.18;47.65;101079.66;4938618;29;20997;-71
2022/06/08 05:10:54;;;;;;;39.63;26.27;;;;;;;36.08;47.10;101079.75;4956212;29;20407;-71
2022/06/08 05:13:21;;;;;;;45.07;27.70;;;;;;;36.16;47.14;101087.25;4938627;29;20543;-71
2022/06/08 05:15:49;;;;;;;39.83;27.23;;;;;;;36.27;46.94;101081.41;4956235;29;20494;-70
2022/06/08 05:18:20;;;;;;;40.77;26.37;;;;;;;36.04;47.44;101068.75;4922986;29;20419;-70
2022/06/08 05:20:47;;;;;;;42.70;25.57;;;;;;;35.58;48.20;101069.19;4938617;29;20482;-69
2022/06/08 05:23:21;;;;;;;47.57;33.50;;;;;;;35.76;48.43;101071.16;4956053;29;20478;-70
2022/06/08 05:25:47;;;;;;;31.63;25.90;;;;;;;35.91;47.96;101078.34;4938535;29;20498;-70
2022/06/08 05:28:14;;;;;;;37.50;26.77;;;;;;;35.93;47.70;101072.66;4956126;29;20399;-68
2022/06/08 05:30:42;;;;;;;41.03;24.57;;;;;;;36.07;47.10;101078.97;4938332;29;20460;-70
2022/06/08 05:33:08;;;;;;;39.70;26.67;;;;;;;35.99;47.57;101079.59;4937214;29;20575;-71
2022/06/08 05:35:35;;;;;;;38.60;26.00;;;;;;;36.04;47.37;101085.75;4938467;29;20514;-71
2022/06/08 05:38:01;;;;;;;41.07;27.30;;;;;;;36.14;47.29;101084.81;4938225;29;20470;-69
2022/06/08 05:40:28;;;;;;;39.57;28.70;;;;;;;35.96;47.85;101086.34;4938189;29;20418;-69
2022/06/08 05:42:55;;;;;;;44.13;29.07;;;;;;;36.10;47.34;101075.69;4938145;29;20486;-69
2022/06/08 05:45:26;;;;;;;38.37;27.33;;;;;;;36.30;46.51;101080.03;4938145;29;20419;-69
2022/06/08 05:47:52;;;;;;;35.87;26.73;;;;;;;36.45;46.90;101092.56;4938271;29;20510;-72
2022/06/08 05:50:19;;;;;;;40.37;25.60;;;;;;;36.53;46.17;101095.44;4937307;29;20423;-68
2022/06/08 05:52:47;;;;;;;38.67;27.07;;;;;;;36.57;46.51;101103.75;4936809;29;20415;-69
2022/06/08 05:55:14;;;;;;;35.60;24.63;;;;;;;36.52;46.59;101106.50;4937283;29;20450;-71
2022/06/08 05:57:41;;;;;;;35.70;23.30;;;;;;;36.60;46.43;101111.28;4953909;29;20474;-71
2022/06/08 06:00:10;;;;;;;35.70;26.10;;;;;;;36.64;46.55;101114.19;4955373;29;20766;-69
2022/06/08 06:02:36;;;;;;;47.23;27.07;;;;;;;36.68;46.40;101113.34;4937791;29;20411;-71
2022/06/08 06:05:04;;;;;;;44.20;29.30;;;;;;;36.58;46.07;101122.38;4936988;29;20470;-72
2022/06/08 06:07:30;;;;;;;47.40;28.67;;;;;;;36.67;46.09;101122.53;4937095;29;20933;-74
2022/06/08 06:10:02;;;;;;;50.70;26.80;;;;;;;36.71;46.32;101136.25;4952229;29;20502;-70
2022/06/08 06:12:29;;;;;;;38.10;27.13;;;;;;;36.73;46.63;101131.38;4938934;28;20430;-69
2022/06/08 06:14:57;;;;;;;50.67;28.97;;;;;;;36.76;46.60;101141.59;4969365;28;20422;-72
2022/06/08 06:17:23;;;;;;;52.37;31.70;;;;;;;36.79;46.50;101138.34;4936914;29;20434;-72
2022/06/08 06:19:49;;;;;;;46.00;31.17;;;;;;;36.81;46.74;101152.34;4949309;29;20427;-71
2022/06/08 06:22:15;;;;;;;45.17;26.70;;;;;;;36.84;46.17;101151.78;4933613;29;20427;-69
2022/06/08 06:24:41;;;;;;;42.63;28.03;;;;;;;36.63;46.19;101153.94;4953950;29;20422;-72
2022/06/08 06:27:08;;;;;;;46.07;30.77;;;;;;;36.66;46.31;101153.38;4936295;29;20519;-70
2022/06/08 06:29:34;;;;;;;45.67;29.67;;;;;;;36.64;46.75;101154.75;4936094;29;20487;-69
2022/06/08 06:32:06;;;;;;;43.57;30.87;;;;;;;36.62;46.50;101146.13;4953460;29;21035;-69
2022/06/08 06:34:33;;;;;;;44.37;32.20;;;;;;;36.63;46.70;101159.34;4949719;29;20487;-71
2022/06/08 06:36:59;;;;;;;52.83;34.53;;;;;;;36.67;46.61;101143.38;4952703;29;20415;-71
2022/06/08 06:39:27;;;;;;;46.17;32.73;;;;;;;36.55;47.04;101138.38;4954894;28;20451;-73
2022/06/08 06:41:54;;;;;;;40.37;29.40;;;;;;;36.68;46.75;101156.59;4955745;28;20823;-70
2022/06/08 06:44:20;;;;;;;44.00;31.40;;;;;;;36.70;46.75;101154.38;4954409;28;20417;-70
2022/06/08 06:46:46;;;;;;;39.37;28.97;;;;;;;36.92;46.27;101153.84;4954072;28;20848;-68
2022/06/08 06:49:13;;;;;;;51.87;34.43;;;;;;;36.82;46.41;101159.38;4973155;28;20406;-71
2022/06/08 06:51:39;;;;;;;46.97;33.23;;;;;;;36.89;45.87;101162.53;4971592;28;20464;-70
2022/06/08 06:54:08;;;;;;;44.70;32.70;;;;;;;36.95;46.06;101164.06;4971751;28;20474;-69
2022/06/08 06:56:35;;;;;;;50.17;33.37;;;;;;;36.93;46.12;101165.47;4955124;28;20418;-70
2022/06/08 06:59:02;;;;;;;38.10;28.57;;;;;;;36.94;46.61;101175.19;4955034;28;21020;-70
2022/06/08 07:01:29;;;;;;;52.77;36.17;;;;;;;36.97;45.81;101178.13;4939696;28;20457;-70
2022/06/08 07:03:55;;;;;;;53.67;38.07;;;;;;;37.17;45.68;101173.50;4955361;28;20418;-69
2022/06/08 07:06:21;;;;;;;55.40;38.90;;;;;;;37.13;45.67;101182.19;4955403;28;20442;-70
2022/06/08 07:08:47;;;;;;;48.50;35.40;;;;;;;37.21;45.81;101182.66;4972799;28;20509;-70
2022/06/08 07:13:59;;;;;;;51.50;35.63;;;;;;;37.24;45.94;101190.16;4953626;29;20441;-70
2022/06/08 07:16:26;;;;;;;60.07;41.93;;;;;;;37.10;45.96;101193.63;4936246;29;20415;-69
2022/06/08 07:18:52;;;;;;;54.87;42.73;;;;;;;37.06;45.94;101192.59;4936613;29;20543;-71
2022/06/08 07:21:18;;;;;;;59.87;42.43;;;;;;;37.06;46.21;101203.41;4936520;29;20508;-71
2022/06/08 07:23:45;;;;;;;59.60;42.40;;;;;;;37.03;45.77;101211.31;4953486;29;20431;-70
2022/06/08 07:26:12;;;;;;;58.57;39.73;;;;;;;37.13;45.85;101214.66;4936245;29;20427;-70
2022/06/08 07:28:39;;;;;;;61.63;43.20;;;;;;;37.29;45.42;101198.22;4953467;29;20402;-70
2022/06/08 07:31:06;;;;;;;56.77;40.97;;;;;;;37.37;45.23;101202.97;4936285;29;20422;-70
2022/06/08 07:33:34;;;;;;;49.73;33.50;;;;;;;37.37;45.27;101213.81;4929531;29;20874;-71
2022/06/08 07:36:02;;;;;;;57.27;37.37;;;;;;;37.41;44.97;101224.88;4934305;29;20844;-69
2022/06/08 07:38:28;;;;;;;51.80;37.97;;;;;;;37.38;45.23;101223.53;4922743;29;21289;-71
2022/06/08 07:40:54;;;;;;;52.87;34.00;;;;;;;37.53;44.92;101230.63;4925177;29;20414;-69
2022/06/08 07:43:22;;;;;;;52.03;34.70;;;;;;;37.58;44.99;101234.06;4941239;29;20430;-72
2022/06/08 07:51:10;;;;;;;42.03;33.70;;;;;;;37.25;46.06;101243.97;5147311;27;20397;-71
2022/06/08 07:53:37;;;;;;;45.37;29.00;;;;;;;37.47;45.47;101237.22;5131100;27;20402;-70
2022/06/08 07:56:04;;;;;;;39.50;31.33;;;;;;;37.51;45.26;101249.88;5130735;27;21011;-67
2022/06/08 07:58:30;;;;;;;53.80;35.80;;;;;;;37.61;44.92;101243.47;5130888;27;20895;-68
2022/06/08 08:00:57;;;;;;;47.80;33.80;;;;;;;37.67;45.00;101244.22;5149421;27;20398;-68
2022/06/08 08:03:24;;;;;;;46.00;31.70;;;;;;;37.71;45.34;101243.34;5148892;27;20434;-70
2022/06/08 08:05:50;;;;;;;34.83;27.20;;;;;;;37.62;45.69;101235.06;5121965;27;20431;-68
2022/06/08 08:08:18;;;;;;;57.87;33.00;;;;;;;37.70;45.29;101241.72;5145612;27;20402;-69
2022/06/08 08:10:45;;;;;;;39.20;28.23;;;;;;;37.70;45.23;101239.03;5149095;27;20398;-68
2022/06/08 08:13:13;;;;;;;60.03;27.87;;;;;;;37.86;44.63;101239.59;5118946;27;20419;-69
2022/06/08 08:15:41;;;;;;;46.43;27.87;;;;;;;37.76;44.97;101243.25;5121436;27;20414;-68
2022/06/08 08:18:07;;;;;;;30.73;22.00;;;;;;;37.28;46.28;101246.13;5119337;27;20486;-68
2022/06/08 08:20:34;;;;;;;32.40;23.53;;;;;;;37.62;45.37;101247.78;5120947;27;20411;-69
2022/06/08 08:23:01;;;;;;;32.50;24.77;;;;;;;37.75;44.86;101255.19;5102476;27;20431;-72
2022/06/08 08:25:28;;;;;;;37.20;24.03;;;;;;;37.91;44.95;101261.16;5120009;27;20916;-71
2022/06/08 08:27:57;;;;;;;38.93;24.70;;;;;;;37.89;44.38;101261.47;5121003;27;21181;-69
2022/06/08 08:30:26;;;;;;;31.03;16.73;;;;;;;37.38;45.49;101256.00;5121255;27;20399;-68
2022/06/08 08:32:53;;;;;;;31.73;19.53;;;;;;;37.62;44.81;101266.75;5124201;27;20403;-70
2022/06/08 08:35:21;;;;;;;29.60;18.87;;;;;;;37.72;45.08;101280.13;5121028;27;20415;-68
2022/06/08 08:37:47;;;;;;;27.87;20.53;;;;;;;37.76;44.80;101275.75;5138028;27;20928;-70
2022/06/08 08:40:29;;;;;;;28.10;21.40;;;;;;;37.91;44.41;101275.50;5116512;27;20414;-68
2022/06/08 08:42:57;;;;;;;42.47;20.33;;;;;;;37.72;45.03;101273.91;5115103;28;20423;-68
2022/06/08 08:45:23;;;;;;;34.77;22.87;;;;;;;37.76;45.18;101277.66;5115612;27;20410;-68
2022/06/08 08:47:59;;;;;;;37.13;20.93;;;;;;;37.88;44.65;101278.81;5129538;27;20623;-65
2022/06/08 08:50:54;;;;;;;32.10;20.00;;;;;;;38.00;44.90;101272.94;5131660;27;20492;-69
2022/06/08 08:53:39;;;;;;;31.03;22.37;;;;;;;38.02;44.73;101276.16;5128845;27;20406;-68
2022/06/08 08:56:21;;;;;;;34.43;20.57;;;;;;;37.82;45.40;101273.78;5110747;28;20403;-69
2022/06/08 08:58:49;;;;;;;35.97;23.03;;;;;;;37.86;45.27;101263.97;5101891;28;20813;-68
2022/06/08 09:01:23;;;;;;;36.17;23.03;;;;;;;37.91;45.02;101275.50;5096878;28;20415;-68
2022/06/08 09:03:56;;;;;;;39.47;24.37;;;;;;;37.91;45.37;101282.84;5096925;28;20461;-68
2022/06/08 09:06:27;;;;;;;28.67;21.57;;;;;;;37.92;44.76;101282.53;5095513;28;20580;-68
2022/06/08 09:08:58;;;;;;;28.27;21.93;;;;;;;37.86;44.72;101262.06;5096784;28;20404;-70
2022/06/08 09:11:25;;;;;;;26.53;19.17;;;;;;;37.86;45.38;101253.94;5103610;27;20542;-69
2022/06/08 09:13:56;;;;;;;32.60;22.13;;;;;;;37.79;45.48;101256.19;5115356;27;20415;-69
2022/06/08 09:16:37;;;;;;;40.73;24.73;;;;;;;37.65;46.08;101260.75;5115513;27;20411;-70
2022/06/08 09:19:22;;;;;;;44.40;21.13;;;;;;;37.70;45.70;101257.97;5115174;27;20427;-70
2022/06/08 09:22:08;;;;;;;41.20;22.03;;;;;;;37.72;45.63;101265.78;5115080;27;20403;-70
2022/06/08 09:24:49;;;;;;;25.37;17.10;;;;;;;37.51;45.87;101262.59;5098428;27;20404;-68
2022/06/08 09:27:17;;;;;;;25.20;15.80;;;;;;;37.65;45.06;101268.88;5116585;27;20454;-67
2022/06/08 09:30:10;;;;;;;24.23;15.10;;;;;;;37.63;44.74;101263.75;5136189;27;20483;-68
2022/06/08 09:32:44;;;;;;;22.47;16.00;;;;;;;37.59;45.40;101264.63;5117479;27;20498;-68
2022/06/08 09:35:31;;;;;;;22.67;15.60;;;;;;;37.62;44.75;101261.31;5117431;27;20406;-68
2022/06/08 09:38:02;;;;;;;23.03;14.83;;;;;;;37.67;44.48;101249.63;5136022;27;20398;-68
2022/06/08 09:40:37;;;;;;;26.87;15.10;;;;;;;37.44;44.81;101254.03;5100746;27;20414;-68
2022/06/08 09:43:30;;;;;;;22.30;16.20;;;;;;;37.31;45.04;101252.84;5135592;27;20383;-68
2022/06/08 09:46:16;;;;;;;23.10;14.07;;;;;;;37.43;44.61;101257.84;5117234;27;20409;-68
2022/06/08 09:51:40;;;;;;;25.23;17.03;;;;;;;37.63;44.02;101257.53;5135929;27;20387;-68
2022/06/08 09:54:15;;;;;;;31.60;16.07;;;;;;;37.59;43.92;101267.34;5135630;27;20431;-68
2022/06/08 09:57:08;;;;;;;22.63;16.50;;;;;;;37.54;44.12;101260.09;5117095;27;20438;-68
2022/06/08 09:59:59;;;;;;;24.50;14.77;;;;;;;37.50;44.26;101253.66;5116937;27;20938;-67
2022/06/08 10:02:42;;;;;;;25.37;15.13;;;;;;;37.53;44.00;101247.66;5116939;27;20415;-68
2022/06/08 10:05:23;;;;;;;26.70;15.37;;;;;;;37.59;44.41;101245.69;5116915;27;20431;-68
2022/06/08 10:08:13;;;;;;;22.00;16.50;;;;;;;37.81;44.11;101251.31;5116808;27;20442;-68
2022/06/08 10:10:58;;;;;;;23.73;16.73;;;;;;;37.81;43.16;101250.50;5115624;27;20411;-68
2022/06/08 10:13:38;;;;;;;20.43;14.80;;;;;;;37.91;43.21;101247.63;5116619;27;20411;-68
2022/06/08 10:16:13;;;;;;;27.40;16.37;;;;;;;38.00;42.75;101250.44;5117003;27;20856;-68
2022/06/08 10:18:44;;;;;;;22.27;14.63;;;;;;;37.92;42.78;101250.03;5116441;27;20414;-68
2022/06/08 10:21:13;;;;;;;18.60;14.37;;;;;;;37.81;43.49;101250.50;5117181;27;20399;-68
2022/06/08 10:23:55;;;;;;;25.50;15.20;;;;;;;37.90;43.26;101254.16;5116352;27;20434;-68
2022/06/08 10:26:43;;;;;;;27.20;15.07;;;;;;;37.87;42.93;101252.81;5117002;27;20439;-68
2022/06/08 10:29:25;;;;;;;27.73;16.17;;;;;;;37.82;43.03;101252.13;5135251;27;20392;-67
2022/06/08 10:32:02;;;;;;;26.93;14.50;;;;;;;37.95;42.74;101247.84;5116335;27;20434;-69
2022/06/08 10:34:31;;;;;;;26.10;14.87;;;;;;;37.86;42.96;101255.84;5116346;27;20407;-69
2022/06/08 10:37:05;;;;;;;25.13;15.50;;;;;;;37.79;43.26;101249.97;5116821;27;20434;-69
2022/06/08 10:39:33;;;;;;;21.77;13.73;;;;;;;37.76;43.08;101240.53;5116280;27;20936;-69
2022/06/08 10:44:59;;;;;;;25.70;14.30;;;;;;;37.74;43.40;101247.34;5134477;27;20872;-69
2022/06/08 10:47:33;;;;;;;29.10;15.93;;;;;;;37.71;44.05;101237.91;5115750;27;20467;-69
2022/06/08 10:50:05;;;;;;;23.60;15.60;;;;;;;37.79;43.55;101239.13;5115979;27;20438;-69
2022/06/08 10:52:38;;;;;;;21.00;13.73;;;;;;;37.76;43.32;101234.31;5116180;27;20422;-67
2022/06/08 10:55:17;;;;;;;22.70;14.63;;;;;;;37.71;43.71;101239.81;5115895;27;20521;-68
2022/06/08 10:57:52;;;;;;;22.93;13.77;;;;;;;37.87;43.15;101230.34;5115889;27;20403;-68
2022/06/08 11:00:18;;;;;;;23.80;14.90;;;;;;;37.97;42.87;101222.06;5095190;28;20423;-68
2022/06/08 11:02:59;;;;;;;20.03;14.83;;;;;;;38.03;42.98;101226.28;5102322;27;20479;-67
2022/06/08 11:05:38;;;;;;;20.17;15.30;;;;;;;37.92;42.76;101227.56;5099591;28;20469;-68
2022/06/08 11:08:07;;;;;;;18.73;15.50;;;;;;;37.94;42.99;101222.69;5093478;28;20455;-69
2022/06/08 11:10:50;;;;;;;25.70;17.57;;;;;;;37.92;43.20;101216.72;5094787;27;20442;-67
2022/06/08 11:13:20;;;;;;;23.63;14.63;;;;;;;37.86;43.49;101218.72;5115532;27;20792;-67
2022/06/08 11:16:07;;;;;;;23.10;15.00;;;;;;;38.03;42.89;101214.66;5108607;28;20810;-68
2022/06/08 11:18:56;;;;;;;23.20;14.70;;;;;;;37.81;43.58;101210.72;5122522;27;20759;-68
2022/06/08 11:21:44;;;;;;;26.67;16.53;;;;;;;37.93;43.38;101202.09;5104250;27;20510;-67
2022/06/08 11:24:26;;;;;;;25.17;15.40;;;;;;;38.12;43.23;101199.31;5119458;27;20447;-67
2022/06/08 11:27:01;;;;;;;24.20;13.77;;;;;;;37.92;43.17;101201.28;5103051;27;20511;-68
2022/06/08 11:29:30;;;;;;;21.50;15.63;;;;;;;37.88;43.40;101189.47;5119678;27;20403;-68
2022/06/08 11:31:57;;;;;;;29.90;17.43;;;;;;;38.11;42.71;101193.09;5100839;27;20416;-68
2022/06/08 11:34:26;;;;;;;28.37;15.40;;;;;;;38.06;42.99;101187.78;5122066;27;20437;-68
2022/06/08 11:37:04;;;;;;;21.60;14.03;;;;;;;38.11;42.38;101184.97;5103327;27;20435;-69
2022/06/08 11:39:40;;;;;;;20.73;13.50;;;;;;;38.11;42.85;101192.28;5105757;28;20456;-68
2022/06/08 11:42:36;;;;;;;22.43;14.60;;;;;;;38.29;42.80;101183.31;5122732;27;20509;-70
2022/06/08 11:45:16;;;;;;;20.47;12.10;;;;;;;38.42;42.55;101181.69;5105600;28;20403;-68
2022/06/08 11:47:52;;;;;;;21.93;13.20;;;;;;;38.42;41.81;101182.50;5117005;28;20456;-68
2022/06/08 11:50:30;;;;;;;16.97;14.77;;;;;;;38.53;41.68;101179.56;5105791;28;20430;-68